createdAt,value
2022-12-09T00:03:42.345Z,9.51
2022-12-09T00:08:40.493Z,9.66
2022-12-09T00:13:38.482Z,9.69
2022-12-09T00:18:37.562Z,9.57
2022-12-09T00:23:34.594Z,9.61
2022-12-09T00:28:32.380Z,9.77
2022-12-09T00:33:30.373Z,9.46
2022-12-09T00:38:28.051Z,9.48
2022-12-09T00:43:25.393Z,9.51
2022-12-09T00:48:26.293Z,9.17
2022-12-09T00:53:23.583Z,9.68
2022-12-09T00:58:20.930Z,9.65
2022-12-09T01:03:18.782Z,9.50
2022-12-09T01:08:17.524Z,9.43
2022-12-09T01:13:16.498Z,9.39
2022-12-09T01:18:16.841Z,9.43
2022-12-09T01:23:17.419Z,9.33
2022-12-09T01:28:17.611Z,9.29
2022-12-09T01:33:15.081Z,9.34
2022-12-09T01:38:12.055Z,9.36
2022-12-09T01:43:17.578Z,9.07
2022-12-09T01:48:16.628Z,9.34
2022-12-09T01:53:15.277Z,9.42
2022-12-09T01:58:14.944Z,9.44
2022-12-09T02:03:13.716Z,9.45
2022-12-09T02:08:14.523Z,9.39
2022-12-09T02:13:26.345Z,9.49
2022-12-09T02:18:29.807Z,9.54
2022-12-09T02:23:33.105Z,9.50
2022-12-09T02:29:16.119Z,9.04
2022-12-09T02:34:17.414Z,9.42
2022-12-09T02:39:24.595Z,9.50
2022-12-09T02:44:24.337Z,9.65
2022-12-09T02:49:25.611Z,9.67
2022-12-09T02:54:24.506Z,9.56
2022-12-09T02:59:23.226Z,9.59
2022-12-09T03:04:24.123Z,9.54
2022-12-09T03:09:27.511Z,9.49
2022-12-09T03:14:30.152Z,9.55
2022-12-09T03:19:33.885Z,9.30
2022-12-09T03:24:35.676Z,9.26
2022-12-09T03:29:37.487Z,9.51
2022-12-09T03:34:38.881Z,9.37
2022-12-09T03:39:38.735Z,9.61
2022-12-09T03:44:39.624Z,9.32
2022-12-09T03:49:38.985Z,9.49
2022-12-09T03:54:42.678Z,9.52
2022-12-09T03:59:43.158Z,9.62
2022-12-09T04:04:42.159Z,9.65
2022-12-09T04:09:39.655Z,9.60
2022-12-09T04:14:37.177Z,9.65
2022-12-09T04:19:34.182Z,9.55
2022-12-09T04:24:32.361Z,9.42
2022-12-09T04:29:29.648Z,9.61
2022-12-09T04:34:27.802Z,9.28
2022-12-09T04:39:25.969Z,9.22
2022-12-09T04:44:23.908Z,9.28
2022-12-09T04:49:21.202Z,9.40
2022-12-09T04:54:19.678Z,9.28
2022-12-09T04:59:16.956Z,9.48
2022-12-09T05:04:15.483Z,9.21
2022-12-09T05:09:13.687Z,9.25
2022-12-09T05:14:11.863Z,9.25
2022-12-09T05:19:10.383Z,9.53
2022-12-09T05:24:08.873Z,9.18
2022-12-09T05:29:06.494Z,9.47
2022-12-09T05:34:04.176Z,9.46
2022-12-09T05:39:06.180Z,8.74
2022-12-09T05:44:04.152Z,9.49
2022-12-09T05:49:01.361Z,9.50
2022-12-09T05:54:02.765Z,9.50
2022-12-09T05:59:01.941Z,9.36
2022-12-09T06:04:38.511Z,8.81
2022-12-09T06:09:36.280Z,8.73
2022-12-09T06:14:33.717Z,9.28
2022-12-09T06:19:31.838Z,9.40
2022-12-09T06:24:30.866Z,9.44
2022-12-09T06:29:28.234Z,9.56
2022-12-09T06:34:25.468Z,9.50
2022-12-09T06:39:23.535Z,9.44
2022-12-09T06:44:23.852Z,9.41
2022-12-09T06:49:21.522Z,9.41
2022-12-09T06:54:18.787Z,9.73
2022-12-09T06:59:16.839Z,9.49
2022-12-09T07:04:17.796Z,9.69
2022-12-09T07:09:17.700Z,9.55
2022-12-09T07:14:18.394Z,9.68
2022-12-09T07:19:24.197Z,9.79
2022-12-09T07:24:22.867Z,9.62
2022-12-09T07:29:21.602Z,9.89
2022-12-09T07:34:20.493Z,9.69
2022-12-09T07:39:21.218Z,10.08
2022-12-09T07:44:18.731Z,10.17
2022-12-09T07:49:19.444Z,10.13
2022-12-09T07:54:21.350Z,10.02
2022-12-09T07:59:19.103Z,10.27
2022-12-09T08:04:17.209Z,10.05
2022-12-09T08:09:17.733Z,10.26
2022-12-09T08:14:14.995Z,10.31
2022-12-09T08:19:14.672Z,10.03
2022-12-09T08:24:19.080Z,10.50
2022-12-09T08:29:16.835Z,10.68
2022-12-09T08:34:15.332Z,10.64
2022-12-09T08:39:14.198Z,10.58
2022-12-09T08:44:15.301Z,10.69
2022-12-09T08:49:49.954Z,10.85
2022-12-09T08:54:56.826Z,10.73
2022-12-09T08:59:54.457Z,11.00
2022-12-09T09:04:51.855Z,10.98
2022-12-09T09:09:49.617Z,11.02
2022-12-09T09:14:47.699Z,10.79
2022-12-09T09:19:47.146Z,10.91
2022-12-09T09:24:59.547Z,10.80
2022-12-09T09:29:59.440Z,10.64
2022-12-09T09:34:56.862Z,10.38
2022-12-09T09:40:21.074Z,10.51
2022-12-09T09:45:21.397Z,10.51
2022-12-09T09:50:27.637Z,10.52
2022-12-09T09:55:44.654Z,10.84
2022-12-09T10:00:49.253Z,10.75
2022-12-09T10:05:53.074Z,10.37
2022-12-09T10:11:01.701Z,10.63
2022-12-09T10:16:09.373Z,10.54
2022-12-09T10:21:17.184Z,10.73
2022-12-09T10:26:19.676Z,10.65
2022-12-09T10:31:20.402Z,10.34
2022-12-09T10:36:26.795Z,10.14
2022-12-09T10:41:59.955Z,10.03
2022-12-09T10:47:01.588Z,9.97
2022-12-09T10:52:01.624Z,9.75
2022-12-09T10:57:23.401Z,9.51
2022-12-09T11:02:22.983Z,9.66
2022-12-09T11:07:26.101Z,10.30
2022-12-09T11:12:39.907Z,9.81
2022-12-09T11:17:43.124Z,9.51
2022-12-09T11:22:42.465Z,8.96
2022-12-09T11:27:44.132Z,9.20
2022-12-09T11:32:59.782Z,8.91
2022-12-09T11:37:59.229Z,8.70
2022-12-09T11:42:58.025Z,8.65
2022-12-09T11:48:29.863Z,8.71
2022-12-09T11:53:28.307Z,8.80
2022-12-09T11:58:28.894Z,9.21
2022-12-09T12:03:35.152Z,8.98
2022-12-09T12:08:38.918Z,8.87
2022-12-09T12:13:40.082Z,8.78
2022-12-09T12:18:45.252Z,8.74
2022-12-09T12:23:57.560Z,8.57
2022-12-09T12:29:07.864Z,8.74
2022-12-09T12:34:37.307Z,8.86
2022-12-09T12:39:48.606Z,8.77
2022-12-09T12:45:10.284Z,9.21
2022-12-09T12:50:26.572Z,9.21
2022-12-09T12:55:41.207Z,8.95
2022-12-09T13:00:51.111Z,9.28
2022-12-09T13:05:52.551Z,9.27
2022-12-09T13:10:53.553Z,8.95
2022-12-09T13:15:54.715Z,8.13
2022-12-09T13:20:54.536Z,8.08
2022-12-09T13:26:23.745Z,8.18
2022-12-09T13:31:29.255Z,8.17
2022-12-09T13:36:37.130Z,8.19
2022-12-09T13:41:58.967Z,8.33
2022-12-09T13:47:27.879Z,8.51
2022-12-09T13:52:42.965Z,8.06
2022-12-09T13:57:50.153Z,8.47
2022-12-09T14:03:01.503Z,8.64
2022-12-09T14:08:04.412Z,8.22
2022-12-09T14:13:21.502Z,8.43
2022-12-09T14:18:32.951Z,8.43
2022-12-09T14:23:32.116Z,8.51
2022-12-09T14:29:00.214Z,8.42
2022-12-09T14:33:57.151Z,8.23
2022-12-09T14:39:24.157Z,8.21
2022-12-09T14:44:28.769Z,8.15
2022-12-09T14:49:29.423Z,7.77
2022-12-09T14:54:32.370Z,7.94
2022-12-09T14:59:32.013Z,7.70
2022-12-09T15:04:31.689Z,7.65
2022-12-09T15:09:30.114Z,7.74
2022-12-09T15:14:27.831Z,7.78
2022-12-09T15:20:01.285Z,6.94
2022-12-09T15:24:53.024Z,7.03
2022-12-09T15:29:51.181Z,7.24
2022-12-09T15:34:53.224Z,7.80
2022-12-09T15:39:58.862Z,7.62
2022-12-09T15:45:04.070Z,7.48
2022-12-09T15:50:10.828Z,7.44
2022-12-09T15:55:14.645Z,7.34
2022-12-09T16:00:13.234Z,7.41
2022-12-09T16:05:11.375Z,7.45
2022-12-09T16:10:14.276Z,7.46
2022-12-09T16:15:15.268Z,7.19
2022-12-09T16:20:22.268Z,7.16
2022-12-09T16:25:25.583Z,7.46
2022-12-09T16:30:29.495Z,6.83
2022-12-09T16:35:39.884Z,7.20
2022-12-09T16:41:02.365Z,7.43
2022-12-09T16:46:03.393Z,7.45
2022-12-09T16:51:12.975Z,7.43
2022-12-09T16:56:18.965Z,7.07
2022-12-09T17:01:18.863Z,7.41
2022-12-09T17:06:18.185Z,7.36
2022-12-09T17:11:19.816Z,7.05
2022-12-09T17:16:55.332Z,7.16
2022-12-09T17:21:55.247Z,7.20
2022-12-09T17:27:03.158Z,7.48
2022-12-09T17:32:01.633Z,7.34
2022-12-09T17:36:59.330Z,7.46
2022-12-09T17:41:59.676Z,7.11
2022-12-09T17:47:02.300Z,6.88
2022-12-09T17:52:00.446Z,7.04
2022-12-09T17:56:59.315Z,7.20
2022-12-09T18:01:59.986Z,7.34
2022-12-09T18:06:57.536Z,7.23
2022-12-09T18:11:57.614Z,7.46
2022-12-09T18:16:57.148Z,7.34
2022-12-09T18:22:05.595Z,7.65
2022-12-09T18:27:08.832Z,7.47
2022-12-09T18:32:07.247Z,7.56
2022-12-09T18:37:13.181Z,7.73
2022-12-09T18:42:10.163Z,7.57
2022-12-09T18:47:08.199Z,7.54
2022-12-09T18:52:05.417Z,7.68
2022-12-09T18:57:03.288Z,7.51
2022-12-09T19:02:00.190Z,7.21
2022-12-09T19:06:59.367Z,7.28
2022-12-09T19:11:56.552Z,7.82
2022-12-09T19:16:54.118Z,7.25
2022-12-09T19:21:52.549Z,7.65
2022-12-09T19:26:52.955Z,7.69
2022-12-09T19:31:53.199Z,7.96
2022-12-09T19:36:52.517Z,8.09
2022-12-09T19:41:51.463Z,8.21
2022-12-09T19:46:48.715Z,8.62
2022-12-09T19:51:46.599Z,8.53
2022-12-09T19:56:44.131Z,8.46
2022-12-09T20:01:43.763Z,8.04
2022-12-09T20:06:41.960Z,8.23
2022-12-09T20:11:39.932Z,8.10
2022-12-09T20:16:41.577Z,7.50
2022-12-09T20:21:39.899Z,7.50
2022-12-09T20:26:38.187Z,7.58
2022-12-09T20:31:37.215Z,7.79
2022-12-09T20:36:36.708Z,7.77
2022-12-09T20:41:33.614Z,7.57
2022-12-09T20:46:35.035Z,7.65
2022-12-09T20:51:36.829Z,7.62
2022-12-09T20:56:34.947Z,7.61
2022-12-09T21:01:45.208Z,7.38
2022-12-09T21:06:43.151Z,7.53
2022-12-09T21:11:40.433Z,7.12
2022-12-09T21:16:42.659Z,6.88
2022-12-09T21:21:42.266Z,7.24
2022-12-09T21:26:40.658Z,6.93
2022-12-09T21:31:40.201Z,7.43
2022-12-09T21:36:40.245Z,7.17
2022-12-09T21:41:37.715Z,7.17
2022-12-09T21:46:36.772Z,7.35
2022-12-09T21:51:34.784Z,7.44
2022-12-09T21:56:35.122Z,7.29
2022-12-09T22:01:34.060Z,7.78
2022-12-09T22:06:31.690Z,7.33
2022-12-09T22:11:31.100Z,7.85
2022-12-09T22:16:30.730Z,8.05
2022-12-09T22:21:30.311Z,8.15
2022-12-09T22:26:28.962Z,8.24
2022-12-09T22:31:28.297Z,8.01
2022-12-09T22:36:28.098Z,7.79
2022-12-09T22:41:27.492Z,7.54
2022-12-09T22:46:27.715Z,8.11
2022-12-09T22:51:28.581Z,8.00
2022-12-09T22:56:29.074Z,8.22
2022-12-09T23:01:30.336Z,8.35
2022-12-09T23:06:28.781Z,8.52
2022-12-09T23:11:27.892Z,8.23
2022-12-09T23:16:26.619Z,8.35
2022-12-09T23:21:25.863Z,7.95
2022-12-09T23:26:25.090Z,7.95
2022-12-09T23:31:26.242Z,7.66
2022-12-09T23:36:26.593Z,7.50
2022-12-09T23:41:24.900Z,7.01
2022-12-09T23:46:25.388Z,7.59
2022-12-09T23:51:24.810Z,7.22
2022-12-09T23:56:23.863Z,7.26
